This is the latest recevied packets stored in our database for station/object DB0LER. If no packets are shown the sender has not sent any packets the latest 24 hours.

If you compare the raw packets with similar data from other websites it may differ (especially the path), the reason is that we are not collecting packets from the same APRS-IS servers. Each APRS-IS server performes duplicate filtering, and which packet that is considered to be a duplicate may differ depending on which APRS-IS server you receive your data from.

1618680637: DB0LER>APRX29,WIDE2-2,qAO,DB0IT:T#037,141.999998093,141,400,,, Testing

1618680716: DB0LER>APRX29,DB0PDF-10*,WIDE2-1,qAS,DB0OL-10:T#037,141.999998093,141,400,,, Testing

1618680937: DB0LER>APRX29,WIDE2-2,qAO,DB0IT:T#069,143.999996185,143,405,,, Testing

1618681042: DB0LER>APRX29,WIDE2-2,qAS,DB0PDF-10::DB0LER :PARM.Temp1,Temp2,Feuchte

1618681042: DB0LER>APRX29,WIDE2-2,qAS,DB0PDF-10::DB0LER :UNIT.C,C,%

1618681607: DB0LER>APRX29,WIDE2-2,qAO,DB0IT:T#035,136.999998093,136,405,,, Testing

1618681667: DB0LER>APRX29,WIDE2-2,qAO,DB0IT::DB0LER :EQNS.0,0.1,0,0,0.1,0,0,0.1,0

1618681762: DB0LER>APRX29,WIDE2-2,qAO,DB0IT:!5313.29N/00726.95E#APRS-Digi Leer

1618681922: DB0LER>APRX29,WIDE2-2,qAO,DB0IT:T#059,141.999998093,141,410,,, Testing

1618682283: DB0LER>APRX29,WIDE2-2,qAO,DB0IT:T#026,141.999998093,141,412,,, Testing

1618683222: DB0LER>APRX29,WIDE2-2,qAS,DB0PDF-10:T#072,138.000001907,138,417,,, Testing

1618683273: DB0LER>APRX29,DB0PDF-10*,WIDE2-1,qAR,DB0BI-10:T#072,138.000001907,138,417,,, Testing

1618683514: DB0LER>APRX29,WIDE2-2,qAO,DB0IT:!5313.29N/00726.95E#APRS-Digi Leer

1618683557: DB0LER>APRX29,WIDE2-2,qAS,DB0PDF-10:T#066,138.000001907,138,422,,, Testing

1618683916: DB0LER>APRX29,WIDE2-2,qAO,DB0IT:T#085,133.999996185,133,425,,, Testing

1618684160: DB0LER>APRX29,WIDE2-2,qAR,DB0OX-10::DB0LER :PARM.Temp1,Temp2,Feuchte

1618684161: DB0LER>APRX29,WIDE2-2,qAR,DL5SAA-10::DB0LER :UNIT.C,C,%

1618684842: DB0LER>APRX29,WIDE2-2,qAS,DB0PDF-10:T#087,135.0,135,437,,, Testing

1618684875: DB0LER>APRX29,DB0PDF-10*,WIDE2-1,qAR,DB0ROD:T#087,135.0,135,437,,, Testing

1618685488: DB0LER>APRX29,WIDE2-2,qAO,DB0IT:T#075,131.000003815,131,444,,, Testing

1618685531: DB0LER>APRX29,DB0PDF-10*,WIDE2-1,qAR,DB0ROD:T#075,131.000003815,131,444,,, Testing

1618685847: DB0LER>APRX29,WIDE2-2,qAS,DB0PDF-10:T#050,131.000003815,131,442,,, Testing

1618686877: DB0LER>APRX29,WIDE2-2,qAS,DB0PDF-10:!5313.29N/00726.95E#APRS-Digi Leer

1618686892: DB0LER>APRX29,WIDE2-2,qAS,DB0PDF-10:T#074,126.000003815,126,440,,, Testing

1618686909: DB0LER>APRX29,DB0PDF-10*,WIDE2-1,qAR,DB0BI-10:!5313.29N/00726.95E#APRS-Digi Leer

Initial position
Current position
Ruler